createdAt,value
2022-11-05T00:00:34.317Z,8.10
2022-11-05T00:03:21.205Z,8.55
2022-11-05T00:06:09.109Z,8.07
2022-11-05T00:08:54.951Z,7.53
2022-11-05T00:11:44.310Z,8.30
2022-11-05T00:14:30.036Z,8.60
2022-11-05T00:16:58.289Z,7.68
2022-11-05T00:19:27.824Z,7.88
2022-11-05T00:22:13.592Z,7.63
2022-11-05T00:24:58.803Z,7.32
2022-11-05T00:27:27.014Z,6.15
2022-11-05T00:29:55.040Z,7.10
2022-11-05T00:32:24.351Z,6.53
2022-11-05T00:34:53.796Z,6.20
2022-11-05T00:37:21.824Z,6.47
2022-11-05T00:39:50.059Z,6.38
2022-11-05T00:42:35.922Z,6.63
2022-11-05T00:45:04.213Z,6.07
2022-11-05T00:47:51.678Z,5.72
2022-11-05T00:50:23.175Z,5.95
2022-11-05T00:52:58.241Z,5.18
2022-11-05T00:55:33.333Z,5.28
2022-11-05T00:58:02.753Z,5.65
2022-11-05T01:00:32.298Z,5.28
2022-11-05T01:03:02.523Z,5.35
2022-11-05T01:05:33.887Z,4.90
2022-11-05T01:08:02.933Z,5.82
2022-11-05T01:10:32.146Z,5.20
2022-11-05T01:13:00.264Z,4.75
2022-11-05T01:15:28.416Z,5.00
2022-11-05T01:17:56.495Z,6.03
2022-11-05T01:20:24.886Z,5.75
2022-11-05T01:22:54.316Z,5.88
2022-11-05T01:25:22.543Z,5.30
2022-11-05T01:27:50.812Z,5.22
2022-11-05T01:30:19.222Z,5.70
2022-11-05T01:32:47.543Z,5.30
2022-11-05T01:35:17.509Z,5.85
2022-11-05T01:37:46.393Z,5.68
2022-11-05T01:40:19.447Z,4.88
2022-11-05T01:42:47.927Z,5.30
2022-11-05T01:45:19.018Z,4.95
2022-11-05T01:47:59.453Z,5.43
2022-11-05T01:50:38.340Z,4.70
2022-11-05T01:53:18.251Z,5.38
2022-11-05T01:55:54.507Z,5.57
2022-11-05T01:58:26.776Z,5.15
2022-11-05T02:00:56.283Z,5.00
2022-11-05T02:03:25.346Z,5.13
2022-11-05T02:05:55.179Z,5.22
2022-11-05T02:08:40.368Z,5.00
2022-11-05T02:11:10.399Z,5.22
2022-11-05T02:13:38.414Z,5.40
2022-11-05T02:16:14.929Z,5.45
2022-11-05T02:18:52.838Z,5.32
2022-11-05T02:21:52.372Z,4.60
2022-11-05T02:24:58.232Z,5.88
2022-11-05T02:27:50.247Z,4.63
2022-11-05T02:30:42.098Z,6.03
2022-11-05T02:33:30.488Z,5.53
2022-11-05T02:36:12.751Z,5.32
2022-11-05T02:38:48.144Z,5.47
2022-11-05T02:41:24.913Z,5.35
2022-11-05T02:44:05.660Z,13.50
2022-11-05T02:46:45.634Z,12.50
2022-11-05T02:49:22.600Z,8.13
2022-11-05T02:51:57.833Z,9.95
2022-11-05T02:54:30.107Z,11.18
2022-11-05T02:57:00.196Z,8.50
2022-11-05T02:59:28.586Z,6.13
2022-11-05T03:01:59.651Z,5.38
2022-11-05T03:04:28.679Z,5.15
2022-11-05T03:07:16.077Z,5.32
2022-11-05T03:10:03.920Z,5.05
2022-11-05T03:12:44.206Z,5.13
2022-11-05T03:15:21.261Z,5.18
2022-11-05T03:18:01.148Z,5.15
2022-11-05T03:20:36.717Z,5.03
2022-11-05T03:23:12.879Z,5.55
2022-11-05T03:25:47.742Z,6.05
2022-11-05T03:28:18.541Z,5.85
2022-11-05T03:30:49.422Z,9.20
2022-11-05T03:33:25.587Z,8.95
2022-11-05T03:35:56.647Z,6.20
2022-11-05T03:38:29.030Z,5.47
2022-11-05T03:41:01.688Z,5.63
2022-11-05T03:43:33.520Z,5.47
2022-11-05T03:46:06.142Z,5.65
2022-11-05T03:48:41.945Z,7.85
2022-11-05T03:51:14.892Z,8.98
2022-11-05T03:53:48.046Z,11.05
2022-11-05T03:56:21.879Z,7.60
2022-11-05T03:58:54.701Z,6.30
2022-11-05T04:01:26.554Z,5.28
2022-11-05T04:03:56.040Z,5.22
2022-11-05T04:06:41.941Z,6.70
2022-11-05T04:09:28.702Z,5.25
2022-11-05T04:12:14.428Z,5.43
2022-11-05T04:14:42.419Z,5.97
2022-11-05T04:17:10.111Z,5.05
2022-11-05T04:19:58.942Z,5.00
2022-11-05T04:22:46.565Z,4.53
2022-11-05T04:25:16.035Z,5.03
2022-11-05T04:27:44.366Z,4.95
2022-11-05T04:30:18.706Z,5.10
2022-11-05T04:33:04.934Z,5.70
2022-11-05T04:35:36.925Z,5.38
2022-11-05T04:38:05.872Z,5.57
2022-11-05T04:40:34.985Z,5.35
2022-11-05T04:43:03.018Z,5.28
2022-11-05T04:45:34.473Z,6.28
2022-11-05T04:48:02.598Z,5.43
2022-11-05T04:50:31.331Z,5.22
2022-11-05T04:53:00.889Z,5.15
2022-11-05T04:55:29.556Z,5.60
2022-11-05T04:57:57.697Z,5.57
2022-11-05T05:00:26.202Z,5.82
2022-11-05T05:02:54.150Z,5.22
2022-11-05T05:05:23.283Z,6.00
2022-11-05T05:07:51.427Z,5.50
2022-11-05T05:10:21.195Z,5.20
2022-11-05T05:12:49.212Z,5.95
2022-11-05T05:15:17.681Z,5.95
2022-11-05T05:17:45.708Z,6.15
2022-11-05T05:20:31.373Z,6.30
2022-11-05T05:22:59.392Z,5.95
2022-11-05T05:25:28.804Z,5.80
2022-11-05T05:27:58.800Z,5.90
2022-11-05T05:30:27.217Z,6.20
2022-11-05T05:32:55.516Z,6.45
2022-11-05T05:35:23.722Z,6.30
2022-11-05T05:37:56.846Z,6.45
2022-11-05T05:40:25.316Z,6.25
2022-11-05T05:42:56.830Z,5.43
2022-11-05T05:45:24.969Z,5.80
2022-11-05T05:47:53.134Z,5.80
2022-11-05T05:50:21.730Z,5.47
2022-11-05T05:52:53.224Z,6.00
2022-11-05T05:55:21.632Z,5.88
2022-11-05T05:57:49.769Z,6.60
2022-11-05T06:00:19.565Z,5.78
2022-11-05T06:02:47.752Z,6.10
2022-11-05T06:05:16.252Z,6.50
2022-11-05T06:07:44.364Z,5.95
2022-11-05T06:10:12.801Z,6.55
2022-11-05T06:12:41.086Z,6.15
2022-11-05T06:15:09.874Z,6.57
2022-11-05T06:17:39.374Z,6.13
2022-11-05T06:20:09.488Z,6.70
2022-11-05T06:22:37.633Z,6.32
2022-11-05T06:25:07.222Z,7.22
2022-11-05T06:27:36.095Z,6.85
2022-11-05T06:30:04.864Z,7.05
2022-11-05T06:32:32.971Z,7.32
2022-11-05T06:35:02.729Z,6.85
2022-11-05T06:37:33.484Z,7.28
2022-11-05T06:40:01.839Z,7.10
2022-11-05T06:42:29.872Z,7.45
2022-11-05T06:44:58.091Z,7.82
2022-11-05T06:47:26.138Z,7.22
2022-11-05T06:49:54.299Z,7.72
2022-11-05T06:52:23.939Z,8.45
2022-11-05T06:54:52.313Z,7.95
2022-11-05T06:57:20.357Z,8.35
2022-11-05T06:59:48.387Z,8.32
2022-11-05T07:02:18.292Z,9.13
2022-11-05T07:04:46.325Z,9.05
2022-11-05T07:07:14.530Z,8.70
2022-11-05T07:09:44.766Z,8.93
2022-11-05T07:12:12.964Z,8.85
2022-11-05T07:14:41.079Z,8.60
2022-11-05T07:17:09.424Z,10.30
2022-11-05T07:19:37.503Z,10.40
2022-11-05T07:22:05.705Z,11.02
2022-11-05T07:24:36.234Z,8.45
2022-11-05T07:27:05.875Z,8.70
2022-11-05T07:29:33.932Z,8.10
2022-11-05T07:32:02.252Z,8.48
2022-11-05T07:34:30.299Z,8.82
2022-11-05T07:36:58.654Z,8.98
2022-11-05T07:39:26.964Z,8.23
2022-11-05T07:41:55.615Z,7.90
2022-11-05T07:44:25.264Z,8.68
2022-11-05T07:46:53.776Z,9.00
2022-11-05T07:49:23.729Z,7.95
2022-11-05T07:51:51.883Z,8.50
2022-11-05T07:54:19.916Z,8.80
2022-11-05T07:56:48.665Z,8.55
2022-11-05T07:59:16.739Z,8.98
2022-11-05T08:01:46.618Z,8.80
2022-11-05T08:04:14.780Z,8.40
2022-11-05T08:06:43.222Z,8.10
2022-11-05T08:09:11.407Z,7.70
2022-11-05T08:11:40.006Z,7.55
2022-11-05T08:14:08.439Z,7.15
2022-11-05T08:16:36.455Z,7.50
2022-11-05T08:19:06.009Z,7.78
2022-11-05T08:21:34.087Z,7.25
2022-11-05T08:24:02.169Z,7.15
2022-11-05T08:26:30.236Z,6.72
2022-11-05T08:29:00.432Z,6.07
2022-11-05T08:31:28.663Z,6.00
2022-11-05T08:34:01.360Z,5.65
2022-11-05T08:36:31.901Z,4.70
2022-11-05T08:39:00.179Z,4.45
2022-11-05T08:41:28.206Z,4.40
2022-11-05T08:43:56.492Z,3.60
2022-11-05T08:46:24.605Z,2.75
2022-11-05T08:48:53.284Z,2.03
2022-11-05T08:51:21.284Z,2.20
2022-11-05T08:53:50.834Z,2.83
2022-11-05T08:56:18.870Z,2.53
2022-11-05T08:58:47.248Z,3.38
2022-11-05T09:01:15.341Z,2.90
2022-11-05T09:03:43.712Z,2.40
2022-11-05T09:06:11.816Z,2.13
2022-11-05T09:08:40.229Z,2.42
2022-11-05T09:11:09.687Z,2.42
2022-11-05T09:13:37.837Z,2.10
2022-11-05T09:16:07.115Z,2.70
2022-11-05T09:18:35.520Z,2.03
2022-11-05T09:21:03.536Z,2.53
2022-11-05T09:23:31.735Z,1.92
2022-11-05T09:25:59.752Z,2.20
2022-11-05T09:28:31.630Z,3.45
2022-11-05T09:31:00.561Z,2.28
2022-11-05T09:33:29.243Z,3.50
2022-11-05T09:36:00.918Z,2.38
2022-11-05T09:38:29.279Z,2.17
2022-11-05T09:41:00.530Z,7.50
2022-11-05T09:43:35.733Z,3.60
2022-11-05T09:46:10.447Z,2.38
2022-11-05T09:48:40.340Z,1.95
2022-11-05T09:51:08.654Z,2.25
2022-11-05T09:53:41.083Z,2.50
2022-11-05T09:56:21.224Z,1.90
2022-11-05T09:58:54.413Z,1.60
2022-11-05T10:01:26.907Z,1.60
2022-11-05T10:03:57.784Z,1.70
2022-11-05T10:06:27.424Z,2.00
2022-11-05T10:09:03.085Z,1.55
2022-11-05T10:11:36.531Z,1.58
2022-11-05T10:14:12.666Z,1.65
2022-11-05T10:16:44.396Z,1.50
2022-11-05T10:19:17.083Z,2.10
2022-11-05T10:22:05.607Z,1.80
2022-11-05T10:24:33.250Z,2.08
2022-11-05T10:27:01.596Z,1.50
2022-11-05T10:29:34.263Z,1.38
2022-11-05T10:32:05.800Z,1.67
2022-11-05T10:34:36.034Z,1.35
2022-11-05T10:37:04.693Z,1.25
2022-11-05T10:42:40.927Z,1.70
2022-11-05T10:45:22.571Z,1.75
2022-11-05T10:48:01.980Z,1.45
2022-11-05T10:50:31.210Z,1.70
2022-11-05T10:53:01.579Z,1.30
2022-11-05T10:55:33.349Z,1.25
2022-11-05T10:58:20.445Z,1.52
2022-11-05T11:01:12.257Z,1.45
2022-11-05T11:03:51.625Z,1.50
2022-11-05T11:06:25.834Z,1.30
2022-11-05T11:08:56.895Z,1.50
2022-11-05T11:11:32.060Z,1.40
2022-11-05T11:14:06.029Z,1.30
2022-11-05T11:16:41.310Z,1.30
2022-11-05T11:19:28.773Z,1.50
2022-11-05T11:22:22.685Z,1.25
2022-11-05T11:24:54.017Z,1.52
2022-11-05T11:27:29.192Z,1.60
2022-11-05T11:29:59.918Z,1.50
2022-11-05T11:32:34.645Z,1.33
2022-11-05T11:35:03.533Z,1.88
2022-11-05T11:37:34.560Z,1.50
2022-11-05T11:40:06.734Z,1.63
2022-11-05T11:42:39.839Z,1.63
2022-11-05T11:45:16.480Z,1.35
2022-11-05T11:47:47.467Z,1.92
2022-11-05T11:50:36.291Z,1.45
2022-11-05T11:53:26.861Z,1.42
2022-11-05T11:56:00.627Z,1.52
2022-11-05T11:58:40.726Z,1.50
2022-11-05T12:01:37.232Z,1.92
2022-11-05T12:04:24.324Z,1.60
2022-11-05T12:06:59.216Z,1.75
2022-11-05T12:09:37.753Z,1.52
2022-11-05T12:12:11.663Z,1.52
2022-11-05T12:14:48.504Z,1.48
2022-11-05T12:17:30.555Z,1.50
2022-11-05T12:20:24.979Z,1.55
2022-11-05T12:23:24.016Z,1.40
2022-11-05T12:26:00.896Z,1.52
2022-11-05T12:32:03.430Z,1.63
2022-11-05T12:34:48.487Z,1.70
2022-11-05T12:37:30.683Z,1.67
2022-11-05T12:40:11.522Z,1.90
2022-11-05T12:43:03.582Z,1.67
2022-11-05T12:45:43.048Z,1.65
2022-11-05T12:48:28.268Z,2.10
2022-11-05T12:51:05.255Z,1.70
2022-11-05T12:53:48.627Z,2.40
2022-11-05T12:56:22.240Z,1.77
2022-11-05T12:58:56.870Z,1.60
2022-11-05T13:01:32.734Z,1.88
2022-11-05T13:04:06.619Z,1.58
2022-11-05T13:06:40.340Z,1.65
2022-11-05T13:09:15.759Z,1.80
2022-11-05T13:11:49.194Z,1.65
2022-11-05T13:14:21.427Z,2.30
2022-11-05T13:16:53.770Z,1.70
2022-11-05T13:19:25.849Z,1.67
2022-11-05T13:21:58.291Z,1.60
2022-11-05T13:24:32.125Z,2.38
2022-11-05T13:27:16.058Z,1.70
2022-11-05T13:29:49.965Z,2.13
2022-11-05T13:32:29.081Z,1.83
2022-11-05T13:34:57.428Z,2.40
2022-11-05T13:37:46.446Z,1.75
2022-11-05T13:40:20.327Z,1.60
2022-11-05T13:43:18.640Z,2.00
2022-11-05T13:46:06.080Z,2.38
2022-11-05T13:48:49.987Z,1.90
2022-11-05T13:51:43.464Z,1.55
2022-11-05T13:54:45.283Z,2.00
2022-11-05T13:57:30.029Z,1.77
2022-11-05T14:00:13.716Z,1.83
2022-11-05T14:02:44.475Z,2.40
2022-11-05T14:05:24.908Z,2.13
2022-11-05T14:07:54.692Z,2.38
2022-11-05T14:10:32.025Z,2.00
2022-11-05T14:13:07.639Z,1.98
2022-11-05T14:15:35.937Z,2.13
2022-11-05T14:18:06.434Z,2.20
2022-11-05T14:20:57.226Z,1.98
2022-11-05T14:23:40.344Z,2.42
2022-11-05T14:26:17.273Z,2.45
2022-11-05T14:28:49.164Z,2.45
2022-11-05T14:32:02.639Z,2.72
2022-11-05T14:34:38.540Z,3.05
2022-11-05T14:37:24.584Z,2.25
2022-11-05T14:39:54.399Z,3.20
2022-11-05T14:42:26.782Z,2.20
2022-11-05T14:45:03.344Z,2.50
2022-11-05T14:47:35.295Z,2.22
2022-11-05T14:50:11.663Z,2.47
2022-11-05T14:52:41.524Z,2.80
2022-11-05T14:55:28.352Z,2.72
2022-11-05T14:58:22.694Z,2.67
2022-11-05T15:00:52.521Z,2.90
2022-11-05T15:03:53.520Z,2.67
2022-11-05T15:06:28.144Z,2.90
2022-11-05T15:09:06.623Z,2.95
2022-11-05T15:11:38.738Z,2.97
2022-11-05T15:14:17.681Z,3.03
2022-11-05T15:16:51.122Z,2.72
2022-11-05T15:19:23.957Z,3.08
2022-11-05T15:21:54.266Z,3.85
2022-11-05T15:24:23.724Z,2.83
2022-11-05T15:26:58.616Z,3.00
2022-11-05T15:29:30.444Z,3.25
2022-11-05T15:32:00.179Z,3.25
2022-11-05T15:34:31.014Z,2.90
2022-11-05T15:37:01.400Z,2.67
2022-11-05T15:39:33.351Z,2.90
2022-11-05T15:42:05.848Z,3.40
2022-11-05T15:44:39.133Z,3.63
2022-11-05T15:47:15.484Z,3.80
2022-11-05T15:49:46.737Z,3.13
2022-11-05T15:52:17.188Z,3.00
2022-11-05T15:54:45.555Z,3.30
2022-11-05T15:57:24.869Z,3.60
2022-11-05T15:59:53.203Z,3.22
2022-11-05T16:02:32.885Z,3.45
2022-11-05T16:05:06.630Z,3.63
2022-11-05T16:07:35.015Z,4.15
2022-11-05T16:10:06.065Z,4.30
2022-11-05T16:12:37.794Z,5.20
2022-11-05T16:15:24.099Z,4.32
2022-11-05T16:17:55.912Z,3.72
2022-11-05T16:20:32.293Z,4.65
2022-11-05T16:23:02.106Z,4.80
2022-11-05T16:25:38.116Z,3.97
2022-11-05T16:28:18.663Z,4.60
2022-11-05T16:30:56.601Z,4.40
2022-11-05T16:33:27.259Z,4.43
2022-11-05T16:35:55.299Z,3.88
2022-11-05T16:38:23.728Z,4.45
2022-11-05T16:40:51.817Z,4.10
2022-11-05T16:43:21.836Z,4.13
2022-11-05T16:45:49.958Z,4.35
2022-11-05T16:48:18.207Z,4.30
2022-11-05T16:50:48.111Z,4.50
2022-11-05T16:53:17.206Z,4.22
2022-11-05T16:55:46.691Z,4.45
2022-11-05T16:58:20.740Z,5.43
2022-11-05T17:00:50.937Z,4.25
2022-11-05T17:03:19.063Z,4.68
2022-11-05T17:05:48.746Z,5.00
2022-11-05T17:08:16.988Z,4.75
2022-11-05T17:10:45.398Z,4.82
2022-11-05T17:13:15.804Z,4.80
2022-11-05T17:15:45.093Z,5.03
2022-11-05T17:18:18.231Z,4.78
2022-11-05T17:20:50.062Z,4.65
2022-11-05T17:23:20.657Z,4.82
2022-11-05T17:25:50.555Z,5.35
2022-11-05T17:28:19.777Z,5.65
2022-11-05T17:30:52.137Z,5.65
2022-11-05T17:33:22.614Z,4.57
2022-11-05T17:35:53.388Z,5.07
2022-11-05T17:38:22.994Z,5.97
2022-11-05T17:40:51.726Z,5.35
2022-11-05T17:43:20.495Z,5.00
2022-11-05T17:45:52.061Z,5.40
2022-11-05T17:48:21.192Z,5.25
2022-11-05T17:50:52.068Z,5.60
2022-11-05T17:53:21.104Z,4.90
2022-11-05T17:55:49.784Z,4.72
2022-11-05T17:58:17.946Z,5.18
2022-11-05T18:00:46.853Z,5.05
2022-11-05T18:03:16.013Z,4.78
2022-11-05T18:08:41.156Z,5.07
2022-11-05T18:11:09.230Z,4.68
2022-11-05T18:13:37.352Z,5.95
2022-11-05T18:16:06.951Z,5.03
2022-11-05T18:18:35.248Z,4.50
2022-11-05T18:21:03.288Z,4.65
2022-11-05T18:23:31.423Z,4.80
2022-11-05T18:26:00.907Z,4.53
2022-11-05T18:28:32.062Z,4.68
2022-11-05T18:31:00.238Z,5.25
2022-11-05T18:33:28.287Z,4.78
2022-11-05T18:35:56.814Z,4.05
2022-11-05T18:38:24.786Z,4.60
2022-11-05T18:40:53.023Z,4.38
2022-11-05T18:43:22.500Z,4.40
2022-11-05T18:45:56.343Z,4.57
2022-11-05T18:48:24.427Z,4.32
2022-11-05T18:50:54.527Z,4.20
2022-11-05T18:53:27.200Z,4.10
2022-11-05T18:55:55.202Z,4.50
2022-11-05T18:58:24.646Z,4.88
2022-11-05T19:00:52.655Z,4.60
2022-11-05T19:03:20.968Z,4.60
2022-11-05T19:05:48.998Z,4.60
2022-11-05T19:08:16.954Z,5.32
2022-11-05T19:10:49.845Z,4.75
2022-11-05T19:13:17.892Z,4.90
2022-11-05T19:15:47.402Z,4.57
2022-11-05T19:18:15.525Z,5.00
2022-11-05T19:20:43.791Z,4.97
2022-11-05T19:23:13.270Z,4.95
2022-11-05T19:25:41.757Z,4.80
2022-11-05T19:28:10.035Z,4.45
2022-11-05T19:30:39.057Z,4.63
2022-11-05T19:33:08.426Z,4.93
2022-11-05T19:35:41.438Z,4.70
2022-11-05T19:38:10.146Z,5.55
2022-11-05T19:40:38.676Z,6.20
2022-11-05T19:43:06.748Z,5.68
2022-11-05T19:45:50.085Z,5.93
2022-11-05T19:48:21.057Z,6.05
2022-11-05T19:50:49.593Z,6.38
2022-11-05T19:53:17.834Z,6.70
2022-11-05T19:55:46.168Z,6.28
2022-11-05T19:58:14.701Z,6.13
2022-11-05T20:00:43.355Z,6.90
2022-11-05T20:03:14.156Z,6.30
2022-11-05T20:05:43.724Z,6.35
2022-11-05T20:08:11.895Z,6.30
2022-11-05T20:10:40.315Z,6.40
2022-11-05T20:13:08.342Z,6.70
2022-11-05T20:15:38.970Z,7.50
2022-11-05T20:18:08.377Z,7.60
2022-11-05T20:20:36.366Z,7.10
2022-11-05T20:23:05.763Z,7.28
2022-11-05T20:25:33.917Z,6.95
2022-11-05T20:28:02.205Z,6.85
2022-11-05T20:30:30.481Z,7.25
2022-11-05T20:32:59.062Z,7.40
2022-11-05T20:35:27.086Z,6.20
2022-11-05T20:37:55.192Z,6.22
2022-11-05T20:40:24.752Z,6.53
2022-11-05T20:42:52.853Z,7.43
2022-11-05T20:45:21.058Z,6.55
2022-11-05T20:47:49.140Z,7.22
2022-11-05T20:50:17.252Z,6.72
2022-11-05T20:52:45.292Z,6.38
2022-11-05T20:55:13.380Z,6.85
2022-11-05T20:57:42.804Z,6.90
2022-11-05T21:00:12.828Z,6.70
2022-11-05T21:02:41.908Z,6.10
2022-11-05T21:05:10.423Z,7.20
2022-11-05T21:07:38.632Z,6.78
2022-11-05T21:10:07.477Z,7.13
2022-11-05T21:12:35.755Z,6.78
2022-11-05T21:15:05.975Z,7.05
2022-11-05T21:17:34.053Z,6.85
2022-11-05T21:20:02.103Z,7.10
2022-11-05T21:22:30.433Z,6.95
2022-11-05T21:24:58.703Z,6.68
2022-11-05T21:27:26.769Z,7.00
2022-11-05T21:29:54.992Z,7.40
2022-11-05T21:32:24.375Z,7.90
2022-11-05T21:34:52.812Z,7.35
2022-11-05T21:37:20.902Z,6.55
2022-11-05T21:39:48.973Z,6.88
2022-11-05T21:42:17.024Z,7.18
2022-11-05T21:44:45.088Z,7.43
2022-11-05T21:47:13.948Z,7.10
2022-11-05T21:49:43.363Z,6.63
2022-11-05T21:52:29.833Z,6.75
2022-11-05T21:55:15.463Z,6.63
2022-11-05T21:58:01.607Z,6.40
2022-11-05T22:00:30.370Z,5.90
2022-11-05T22:03:00.021Z,6.20
2022-11-05T22:05:29.663Z,6.20
2022-11-05T22:07:57.721Z,6.63
2022-11-05T22:10:25.921Z,6.20
2022-11-05T22:12:53.969Z,6.35
2022-11-05T22:15:22.170Z,5.82
2022-11-05T22:17:51.146Z,5.93
2022-11-05T22:20:19.369Z,5.57
2022-11-05T22:22:48.904Z,5.70
2022-11-05T22:25:17.858Z,5.50
2022-11-05T22:27:46.228Z,5.72
2022-11-05T22:30:14.998Z,5.43
2022-11-05T22:32:43.254Z,5.30
2022-11-05T22:35:11.406Z,5.43
2022-11-05T22:37:39.684Z,5.45
2022-11-05T22:40:10.199Z,4.97
2022-11-05T22:42:38.630Z,4.43
2022-11-05T22:45:07.760Z,5.00
2022-11-05T22:47:35.796Z,4.93
2022-11-05T22:50:04.679Z,5.25
2022-11-05T22:52:33.220Z,4.72
2022-11-05T22:55:02.727Z,4.65
2022-11-05T22:57:32.170Z,4.85
2022-11-05T23:00:00.196Z,4.47
2022-11-05T23:02:28.469Z,4.65
2022-11-05T23:04:56.709Z,4.22
2022-11-05T23:07:42.407Z,4.00
2022-11-05T23:10:28.178Z,4.15
2022-11-05T23:12:57.667Z,4.78
2022-11-05T23:15:43.262Z,4.18
2022-11-05T23:18:28.945Z,3.92
2022-11-05T23:21:17.970Z,4.00
2022-11-05T23:24:08.072Z,4.07
2022-11-05T23:26:52.068Z,4.43
2022-11-05T23:29:23.045Z,3.90
2022-11-05T23:32:09.214Z,4.70
2022-11-05T23:34:37.696Z,4.30
2022-11-05T23:37:23.361Z,4.25
2022-11-05T23:39:51.695Z,3.85
2022-11-05T23:42:37.559Z,3.42
2022-11-05T23:45:25.833Z,4.10
2022-11-05T23:48:11.685Z,3.58
2022-11-05T23:50:40.930Z,4.25
2022-11-05T23:53:09.291Z,4.00
2022-11-05T23:55:37.938Z,3.55
2022-11-05T23:58:06.219Z,3.92
